Time;durP1;ratioP1;P1;durP2;ratioP2;P2;SDS_P1;SDS_P2;PMS_P1;PMS_P2;Temp;Humidity;BMP_temperature;BMP_pressure;BME280_temperature;BME280_humidity;BME280_pressure;Samples;Min_cycle;Max_cycle;Signal;HPM_P1;HPM_P2
2022/07/18 00:00:51;;;;;;;8.48;4.20;;;;;;;;;;7661714;23;20021;-52
2022/07/18 00:03:51;;;;;;;7.60;4.28;;;;;;;;;;7651947;23;20041;-52
2022/07/18 00:06:53;;;;;;;7.20;4.47;;;;;;;;;;7652737;23;20108;-48
2022/07/18 00:09:53;;;;;;;8.75;4.57;;;;;;;;;;7652731;23;20043;-55
2022/07/18 00:12:54;;;;;;;7.45;4.30;;;;;;;;;;7658289;23;20021;-54
2022/07/18 00:15:55;;;;;;;7.40;4.20;;;;;;;;;;7654625;23;20028;-52
2022/07/18 00:18:58;;;;;;;9.10;4.60;;;;;;;;;;7652327;23;20068;-56
2022/07/18 00:21:59;;;;;;;7.70;4.68;;;;;;;;;;7651468;23;20053;-54
2022/07/18 00:24:59;;;;;;;9.05;4.88;;;;;;;;;;7655693;23;20025;-53
2022/07/18 00:28:00;;;;;;;9.07;4.90;;;;;;;;;;7653289;23;20017;-56
2022/07/18 00:31:00;;;;;;;8.77;4.22;;;;;;;;;;7654099;23;20016;-53
2022/07/18 00:34:01;;;;;;;6.88;4.20;;;;;;;;;;7666448;23;20029;-53
2022/07/18 00:37:03;;;;;;;8.13;4.43;;;;;;;;;;7657398;23;20100;-55
2022/07/18 00:40:04;;;;;;;11.75;4.65;;;;;;;;;;7651941;23;20490;-53
2022/07/18 00:43:05;;;;;;;6.10;4.28;;;;;;;;;;7658280;23;20344;-52
2022/07/18 00:46:06;;;;;;;6.85;4.43;;;;;;;;;;7652105;23;20021;-53
2022/07/18 00:49:06;;;;;;;6.63;4.28;;;;;;;;;;7651850;23;20024;-52
2022/07/18 00:52:07;;;;;;;8.40;4.70;;;;;;;;;;7653240;23;20536;-52
2022/07/18 00:55:08;;;;;;;9.50;4.90;;;;;;;;;;7652619;23;20416;-53
2022/07/18 00:58:10;;;;;;;7.95;4.53;;;;;;;;;;7654389;23;20638;-51
2022/07/18 01:04:30;;;;;;;7.47;4.22;;;;;;;;;;7653799;23;20045;-49
2022/07/18 01:07:31;;;;;;;8.02;4.70;;;;;;;;;;7651779;23;20052;-54
2022/07/18 01:10:31;;;;;;;7.38;4.55;;;;;;;;;;7652086;23;20548;-52
2022/07/18 01:13:32;;;;;;;6.50;4.35;;;;;;;;;;7658225;23;20024;-52
2022/07/18 01:16:34;;;;;;;6.82;4.30;;;;;;;;;;7662362;23;20026;-52
2022/07/18 01:19:35;;;;;;;9.88;4.35;;;;;;;;;;7651901;23;20341;-51
2022/07/18 01:22:38;;;;;;;8.70;4.50;;;;;;;;;;7654177;23;20059;-48
2022/07/18 01:25:39;;;;;;;8.30;4.72;;;;;;;;;;7656691;23;20047;-52
2022/07/18 01:28:40;;;;;;;6.72;4.45;;;;;;;;;;7657455;23;20080;-54
2022/07/18 01:31:40;;;;;;;9.98;5.00;;;;;;;;;;7661238;23;20021;-53
2022/07/18 01:34:42;;;;;;;8.23;4.85;;;;;;;;;;7663418;23;20075;-53
2022/07/18 01:37:42;;;;;;;8.95;4.55;;;;;;;;;;7663650;23;20409;-53
2022/07/18 01:40:43;;;;;;;7.13;4.90;;;;;;;;;;7662927;23;20017;-53
2022/07/18 01:43:44;;;;;;;8.95;5.22;;;;;;;;;;7664879;23;20039;-52
2022/07/18 01:46:44;;;;;;;8.48;4.88;;;;;;;;;;7670445;23;20624;-53
2022/07/18 01:49:45;;;;;;;7.70;4.70;;;;;;;;;;7672764;23;20017;-52
2022/07/18 01:52:46;;;;;;;7.57;4.43;;;;;;;;;;7673239;23;20125;-53
2022/07/18 01:55:47;;;;;;;7.85;4.78;;;;;;;;;;7673873;23;20340;-54
2022/07/18 01:58:47;;;;;;;7.63;5.32;;;;;;;;;;7672789;23;20052;-47
2022/07/18 02:01:48;;;;;;;8.18;5.05;;;;;;;;;;7673842;23;20720;-54
2022/07/18 02:05:01;;;;;;;7.55;4.80;;;;;;;;;;7674035;23;20392;-54
2022/07/18 02:08:01;;;;;;;;;;;;;;;;;;7672820;23;20036;-53
2022/07/18 02:11:02;;;;;;;7.40;4.63;;;;;;;;;;7673739;23;20347;-48
2022/07/18 02:14:04;;;;;;;7.07;4.68;;;;;;;;;;7673975;23;20472;-48
2022/07/18 02:17:05;;;;;;;;;;;;;;;;;;7673892;23;20049;-51
2022/07/18 02:20:09;;;;;;;7.10;4.63;;;;;;;;;;7673352;23;19999;-55
2022/07/18 02:23:09;;;;;;;8.40;4.82;;;;;;;;;;7673156;23;20103;-53
2022/07/18 02:26:10;;;;;;;9.15;5.10;;;;;;;;;;7674107;23;20025;-49
2022/07/18 02:29:11;;;;;;;11.82;4.82;;;;;;;;;;7672951;23;20041;-53
2022/07/18 02:32:12;;;;;;;9.73;5.40;;;;;;;;;;7673415;23;20091;-54
2022/07/18 02:35:12;;;;;;;10.60;4.85;;;;;;;;;;7672821;23;20025;-52
2022/07/18 02:38:13;;;;;;;6.95;4.55;;;;;;;;;;7665685;23;20017;-55
2022/07/18 02:41:14;;;;;;;9.00;4.75;;;;;;;;;;7667257;23;20021;-53
2022/07/18 02:44:15;;;;;;;8.65;5.43;;;;;;;;;;7666323;23;20036;-53
2022/07/18 02:47:15;;;;;;;6.95;4.82;;;;;;;;;;7666723;23;20017;-52
2022/07/18 02:50:16;;;;;;;7.07;4.88;;;;;;;;;;7664389;23;20016;-55
2022/07/18 02:53:19;;;;;;;9.05;5.40;;;;;;;;;;7664517;23;20044;-50
2022/07/18 02:56:19;;;;;;;9.82;5.50;;;;;;;;;;7665412;23;20330;-53
2022/07/18 02:59:20;;;;;;;9.85;4.93;;;;;;;;;;7666092;23;20073;-54
2022/07/18 03:02:21;;;;;;;10.07;5.47;;;;;;;;;;7665770;23;20116;-55
2022/07/18 03:05:22;;;;;;;8.27;5.13;;;;;;;;;;7663798;23;20479;-54
2022/07/18 03:08:22;;;;;;;7.20;4.80;;;;;;;;;;7664689;23;20108;-55
2022/07/18 03:11:23;;;;;;;7.90;5.20;;;;;;;;;;7666217;23;20059;-53
2022/07/18 03:14:24;;;;;;;7.32;5.20;;;;;;;;;;7664775;23;20039;-52
2022/07/18 03:17:25;;;;;;;8.83;5.33;;;;;;;;;;7663645;23;20124;-54
2022/07/18 03:20:25;;;;;;;9.02;5.40;;;;;;;;;;7664444;23;20184;-51
2022/07/18 03:23:26;;;;;;;10.10;5.30;;;;;;;;;;7665427;23;20017;-49
2022/07/18 03:26:27;;;;;;;8.38;5.20;;;;;;;;;;7662977;23;20049;-48
2022/07/18 03:29:27;;;;;;;8.27;5.57;;;;;;;;;;7663925;23;20402;-54
2022/07/18 03:32:28;;;;;;;10.63;6.68;;;;;;;;;;7673952;23;20105;-53
2022/07/18 03:35:28;;;;;;;9.80;5.93;;;;;;;;;;7665076;23;20359;-52
2022/07/18 03:38:29;;;;;;;10.00;6.68;;;;;;;;;;7665378;23;20099;-54
2022/07/18 03:41:30;;;;;;;8.18;5.10;;;;;;;;;;7665590;23;20511;-48
2022/07/18 03:44:30;;;;;;;10.27;6.15;;;;;;;;;;7664689;23;20048;-53
2022/07/18 03:47:31;;;;;;;8.57;5.53;;;;;;;;;;7668241;23;20461;-53
2022/07/18 03:50:31;;;;;;;9.65;6.60;;;;;;;;;;7666595;23;20120;-52
2022/07/18 03:53:32;;;;;;;9.32;5.70;;;;;;;;;;7665748;23;20072;-52
2022/07/18 03:56:33;;;;;;;10.38;6.30;;;;;;;;;;7676632;23;20329;-54
2022/07/18 03:59:35;;;;;;;11.15;6.60;;;;;;;;;;7666334;23;20023;-53
2022/07/18 04:02:43;;;;;;;9.95;6.47;;;;;;;;;;7662593;23;20544;-48
2022/07/18 04:05:44;;;;;;;11.45;6.38;;;;;;;;;;7674847;23;20105;-52
2022/07/18 04:08:45;;;;;;;11.60;6.43;;;;;;;;;;7665735;23;20437;-51
2022/07/18 04:11:45;;;;;;;10.25;6.28;;;;;;;;;;7663450;23;20017;-53
2022/07/18 04:14:46;;;;;;;10.38;6.65;;;;;;;;;;7666901;23;20092;-51
2022/07/18 04:17:47;;;;;;;11.02;7.00;;;;;;;;;;7663715;23;20028;-55
2022/07/18 04:20:47;;;;;;;11.15;6.45;;;;;;;;;;7665000;23;20028;-49
2022/07/18 04:23:48;;;;;;;11.38;6.78;;;;;;;;;;7668500;23;20392;-50
2022/07/18 04:26:49;;;;;;;12.27;7.07;;;;;;;;;;7664103;23;20115;-56
2022/07/18 04:29:49;;;;;;;12.27;7.57;;;;;;;;;;7663077;23;20052;-55
2022/07/18 04:32:50;;;;;;;14.55;7.60;;;;;;;;;;7665012;23;20081;-53
2022/07/18 04:35:51;;;;;;;14.57;7.85;;;;;;;;;;7666068;23;20080;-50
2022/07/18 04:38:51;;;;;;;12.60;7.93;;;;;;;;;;7663513;23;20092;-51
2022/07/18 04:41:52;;;;;;;12.80;7.75;;;;;;;;;;7670049;23;20079;-53
2022/07/18 04:44:52;;;;;;;14.18;7.80;;;;;;;;;;7667518;23;20452;-54
2022/07/18 04:47:55;;;;;;;13.57;7.68;;;;;;;;;;7663563;23;20024;-50
2022/07/18 04:50:55;;;;;;;;;;;;;;;;;;7665039;23;20021;-54
2022/07/18 04:53:56;;;;;;;12.35;7.97;;;;;;;;;;7669800;23;19916;-50
2022/07/18 04:56:56;;;;;;;16.10;8.10;;;;;;;;;;7669472;23;20459;-48
2022/07/18 04:59:57;;;;;;;16.33;8.98;;;;;;;;;;7671086;23;20104;-48
2022/07/18 05:02:59;;;;;;;20.73;9.68;;;;;;;;;;7670712;23;20385;-50
2022/07/18 05:05:59;;;;;;;11.88;8.05;;;;;;;;;;7668411;23;20064;-53
2022/07/18 05:09:00;;;;;;;14.93;8.35;;;;;;;;;;7664840;23;20013;-54
2022/07/18 05:12:01;;;;;;;14.55;9.15;;;;;;;;;;7669153;23;20024;-54
2022/07/18 05:15:05;;;;;;;15.33;8.93;;;;;;;;;;7668549;23;20051;-51
2022/07/18 05:18:06;;;;;;;11.63;8.40;;;;;;;;;;7669059;23;20045;-57
2022/07/18 05:21:07;;;;;;;18.13;9.68;;;;;;;;;;7667584;23;20108;-51
2022/07/18 05:24:07;;;;;;;17.77;8.90;;;;;;;;;;7671767;23;20096;-48
2022/07/18 05:27:08;;;;;;;16.15;8.85;;;;;;;;;;7645104;23;20161;-49
2022/07/18 05:30:11;;;;;;;18.88;9.18;;;;;;;;;;7671820;23;20029;-54
2022/07/18 05:33:11;;;;;;;16.42;8.50;;;;;;;;;;7674772;23;20024;-57
2022/07/18 05:36:12;;;;;;;14.93;7.80;;;;;;;;;;7674212;23;20017;-57
2022/07/18 05:39:13;;;;;;;15.43;8.27;;;;;;;;;;7672668;23;20108;-55
2022/07/18 05:42:13;;;;;;;16.45;7.97;;;;;;;;;;7672465;23;20020;-53
2022/07/18 05:45:14;;;;;;;16.52;8.25;;;;;;;;;;7672811;23;20056;-55
2022/07/18 05:48:14;;;;;;;18.92;7.78;;;;;;;;;;7671081;23;20449;-57
2022/07/18 05:51:15;;;;;;;15.40;7.90;;;;;;;;;;7672345;23;20455;-56
2022/07/18 05:54:18;;;;;;;16.80;7.43;;;;;;;;;;7673335;23;20017;-58
2022/07/18 05:57:19;;;;;;;11.20;6.70;;;;;;;;;;7676219;23;20409;-54
2022/07/18 06:00:20;;;;;;;12.38;7.22;;;;;;;;;;7672039;23;20024;-57
2022/07/18 06:03:21;;;;;;;14.67;6.73;;;;;;;;;;7672941;23;20052;-56
2022/07/18 06:06:23;;;;;;;12.57;6.78;;;;;;;;;;7673069;23;20083;-56
2022/07/18 06:09:24;;;;;;;13.38;5.78;;;;;;;;;;7671932;23;20013;-56
2022/07/18 06:12:29;;;;;;;10.52;6.18;;;;;;;;;;7673232;23;20337;-56
2022/07/18 06:15:30;;;;;;;11.38;6.32;;;;;;;;;;7673206;23;20133;-54
2022/07/18 06:18:30;;;;;;;15.52;6.50;;;;;;;;;;7672570;23;20021;-55
2022/07/18 06:21:31;;;;;;;12.95;5.65;;;;;;;;;;7671529;23;20044;-57
2022/07/18 06:24:31;;;;;;;12.27;5.35;;;;;;;;;;7671917;23;20045;-54
2022/07/18 06:27:32;;;;;;;15.10;4.53;;;;;;;;;;7673289;23;20689;-50
2022/07/18 06:30:33;;;;;;;15.20;4.60;;;;;;;;;;7670566;23;20435;-56
2022/07/18 06:33:33;;;;;;;10.60;4.10;;;;;;;;;;7671394;23;20156;-53
2022/07/18 06:36:34;;;;;;;7.63;4.10;;;;;;;;;;7672069;23;20044;-55
2022/07/18 06:39:35;;;;;;;13.93;4.60;;;;;;;;;;7671487;23;20435;-58
2022/07/18 06:42:35;;;;;;;8.65;3.63;;;;;;;;;;7672905;23;20021;-56
2022/07/18 06:45:36;;;;;;;9.40;3.75;;;;;;;;;;7672863;23;20440;-54
2022/07/18 06:48:36;;;;;;;7.28;3.53;;;;;;;;;;7671984;23;20087;-57
2022/07/18 06:51:37;;;;;;;7.38;3.55;;;;;;;;;;7671361;23;20041;-48
2022/07/18 06:54:40;;;;;;;9.43;3.80;;;;;;;;;;7672688;23;20024;-51
2022/07/18 06:57:41;;;;;;;9.10;3.50;;;;;;;;;;7670540;23;20783;-58
2022/07/18 07:00:42;;;;;;;9.32;3.78;;;;;;;;;;7677860;23;20055;-57
2022/07/18 07:03:42;;;;;;;10.07;3.83;;;;;;;;;;7669050;23;20104;-54
2022/07/18 07:06:43;;;;;;;10.38;3.42;;;;;;;;;;7665636;23;20024;-57
2022/07/18 07:09:43;;;;;;;8.35;3.40;;;;;;;;;;7666610;23;20445;-54
2022/07/18 07:12:47;;;;;;;7.47;3.40;;;;;;;;;;7669341;23;20063;-52
2022/07/18 07:15:48;;;;;;;9.80;3.03;;;;;;;;;;7670086;23;20025;-57
2022/07/18 07:18:48;;;;;;;7.47;3.10;;;;;;;;;;7679913;23;20016;-51
2022/07/18 07:21:49;;;;;;;6.70;2.78;;;;;;;;;;7670159;23;20018;-56
2022/07/18 07:24:49;;;;;;;16.37;3.40;;;;;;;;;;7672076;23;20107;-57
2022/07/18 07:27:51;;;;;;;5.17;2.80;;;;;;;;;;7673090;23;20105;-57
2022/07/18 07:30:52;;;;;;;;;;;;;;;;;;7666988;23;20123;-52
2022/07/18 07:33:52;;;;;;;6.45;2.45;;;;;;;;;;7667902;23;19920;-49
2022/07/18 07:36:53;;;;;;;8.03;3.00;;;;;;;;;;7669495;23;20731;-48
2022/07/18 07:39:53;;;;;;;8.63;2.63;;;;;;;;;;7666563;23;20089;-55
2022/07/18 07:43:11;;;;;;;8.37;2.50;;;;;;;;;;7664572;23;20013;-52
2022/07/18 07:46:12;;;;;;;7.05;2.50;;;;;;;;;;7666124;23;20491;-56
2022/07/18 07:49:12;;;;;;;5.70;2.43;;;;;;;;;;7666528;23;20018;-54
2022/07/18 07:52:13;;;;;;;5.70;2.40;;;;;;;;;;7665615;23;20093;-54
2022/07/18 07:55:14;;;;;;;5.87;2.33;;;;;;;;;;7667590;23;20021;-55
2022/07/18 07:58:14;;;;;;;7.70;2.70;;;;;;;;;;7667156;23;20035;-57
2022/07/18 08:01:17;;;;;;;7.33;2.40;;;;;;;;;;7666955;23;20021;-56
2022/07/18 08:04:18;;;;;;;6.10;2.40;;;;;;;;;;7665440;23;20523;-57
2022/07/18 08:07:20;;;;;;;7.17;2.40;;;;;;;;;;7666445;23;20021;-53
2022/07/18 08:10:21;;;;;;;5.80;2.63;;;;;;;;;;7668905;23;20021;-59
2022/07/18 08:13:22;;;;;;;6.80;2.37;;;;;;;;;;7670468;23;20036;-54
2022/07/18 08:16:22;;;;;;;8.90;2.50;;;;;;;;;;7669683;23;20143;-52
2022/07/18 08:19:23;;;;;;;5.60;2.20;;;;;;;;;;7670189;23;20096;-53
2022/07/18 08:22:23;;;;;;;7.33;2.33;;;;;;;;;;7668691;23;20013;-57
2022/07/18 08:25:26;;;;;;;7.87;2.20;;;;;;;;;;7670640;23;20025;-57
2022/07/18 08:28:26;;;;;;;;;;;;;;;;;;7669562;23;20431;-49
2022/07/18 08:31:27;;;;;;;4.93;2.15;;;;;;;;;;7667868;23;20054;-52
2022/07/18 08:34:27;;;;;;;7.47;2.17;;;;;;;;;;7666773;23;20096;-51
2022/07/18 08:37:28;;;;;;;4.77;2.03;;;;;;;;;;7664990;23;20487;-57
2022/07/18 08:40:30;;;;;;;4.87;2.47;;;;;;;;;;7665747;23;20040;-54
2022/07/18 08:43:30;;;;;;;5.88;2.10;;;;;;;;;;7666800;23;20051;-57
2022/07/18 08:46:34;;;;;;;7.60;2.10;;;;;;;;;;7664918;23;20514;-58
2022/07/18 08:49:35;;;;;;;4.72;1.88;;;;;;;;;;7665509;23;20036;-48
2022/07/18 08:52:37;;;;;;;6.03;2.38;;;;;;;;;;7665105;23;20025;-54
2022/07/18 08:55:38;;;;;;;5.38;1.90;;;;;;;;;;7666415;23;20109;-54
2022/07/18 08:58:38;;;;;;;4.80;2.10;;;;;;;;;;7667760;23;20024;-55
2022/07/18 09:01:39;;;;;;;5.57;2.30;;;;;;;;;;7664254;23;20025;-58
2022/07/18 09:04:44;;;;;;;6.37;2.20;;;;;;;;;;7665689;23;20017;-54
2022/07/18 09:07:45;;;;;;;5.60;1.95;;;;;;;;;;7666713;23;20092;-48
2022/07/18 09:10:49;;;;;;;5.90;1.80;;;;;;;;;;7662203;23;20019;-56
2022/07/18 09:13:50;;;;;;;5.85;2.20;;;;;;;;;;7662813;23;20456;-58
2022/07/18 09:17:01;;;;;;;6.57;2.17;;;;;;;;;;7664992;23;20096;-49
2022/07/18 09:20:04;;;;;;;5.63;1.90;;;;;;;;;;7665155;23;20072;-55
2022/07/18 09:23:13;;;;;;;6.30;2.25;;;;;;;;;;7663239;23;20021;-52
2022/07/18 09:26:36;;;;;;;6.57;2.17;;;;;;;;;;7665855;23;20105;-58
2022/07/18 09:29:36;;;;;;;6.80;2.00;;;;;;;;;;7665682;23;20036;-53
2022/07/18 09:32:39;;;;;;;4.70;2.23;;;;;;;;;;7666661;23;20104;-53
2022/07/18 09:35:45;;;;;;;8.07;2.42;;;;;;;;;;7664014;23;20484;-55
2022/07/18 09:38:46;;;;;;;10.82;2.85;;;;;;;;;;7664149;23;20100;-58
2022/07/18 09:41:46;;;;;;;7.43;2.50;;;;;;;;;;7665063;23;20021;-58
2022/07/18 09:44:59;;;;;;;9.10;2.30;;;;;;;;;;7663578;23;20076;-51
2022/07/18 09:48:02;;;;;;;6.43;2.60;;;;;;;;;;7663969;23;20021;-57
2022/07/18 09:51:05;;;;;;;7.55;2.30;;;;;;;;;;7664977;23;20044;-52
2022/07/18 09:54:06;;;;;;;4.65;2.30;;;;;;;;;;7665637;23;20025;-53
2022/07/18 09:57:07;;;;;;;5.77;2.73;;;;;;;;;;7669482;23;20461;-57
2022/07/18 10:00:08;;;;;;;7.82;2.65;;;;;;;;;;7672676;23;20025;-55
2022/07/18 10:03:09;;;;;;;5.05;2.45;;;;;;;;;;7672597;23;20453;-57
2022/07/18 10:06:10;;;;;;;5.43;2.43;;;;;;;;;;7671262;23;20156;-57
2022/07/18 10:09:10;;;;;;;5.63;2.67;;;;;;;;;;7670128;23;20071;-57
2022/07/18 10:12:13;;;;;;;3.83;1.90;;;;;;;;;;7666468;23;20092;-52
2022/07/18 10:15:14;;;;;;;5.22;2.10;;;;;;;;;;7665443;23;20104;-57
2022/07/18 10:18:18;;;;;;;6.60;2.37;;;;;;;;;;7665678;23;20013;-56
2022/07/18 10:21:20;;;;;;;5.65;2.25;;;;;;;;;;7665373;23;20131;-57
2022/07/18 10:24:23;;;;;;;5.32;2.28;;;;;;;;;;7666007;23;20056;-55
2022/07/18 10:27:24;;;;;;;5.40;2.10;;;;;;;;;;7665602;23;20159;-55
2022/07/18 10:30:43;;;;;;;6.85;2.65;;;;;;;;;;7665314;23;20067;-57
2022/07/18 10:33:49;;;;;;;5.57;2.53;;;;;;;;;;7669356;23;20037;-57
2022/07/18 10:36:50;;;;;;;6.85;2.63;;;;;;;;;;7668143;23;20495;-49
2022/07/18 10:39:50;;;;;;;5.90;2.23;;;;;;;;;;7669852;23;20013;-48
2022/07/18 10:43:31;;;;;;;5.70;2.60;;;;;;;;;;7673101;23;20103;-55
2022/07/18 10:47:03;;;;;;;6.10;2.20;;;;;;;;;;7667001;23;20386;-57
2022/07/18 10:50:05;;;;;;;4.65;2.00;;;;;;;;;;7668142;23;20017;-58
2022/07/18 10:53:05;;;;;;;4.93;1.85;;;;;;;;;;7671408;23;20103;-53
2022/07/18 10:56:06;;;;;;;6.37;2.13;;;;;;;;;;7670490;23;20388;-58
2022/07/18 10:59:22;;;;;;;3.97;1.90;;;;;;;;;;7667986;23;20092;-54
2022/07/18 11:02:34;;;;;;;4.03;2.03;;;;;;;;;;7666778;23;20032;-56
2022/07/18 11:05:41;;;;;;;5.55;2.28;;;;;;;;;;7663357;23;20725;-58
2022/07/18 11:08:41;;;;;;;5.57;2.13;;;;;;;;;;7667352;23;20021;-56
2022/07/18 11:12:20;;;;;;;5.33;2.03;;;;;;;;;;7666758;23;20071;-55
2022/07/18 11:15:21;;;;;;;5.32;2.38;;;;;;;;;;7665524;23;20093;-56
2022/07/18 11:18:22;;;;;;;4.93;2.27;;;;;;;;;;7666904;23;20795;-55
2022/07/18 11:21:31;;;;;;;4.07;2.23;;;;;;;;;;7667770;23;20063;-57
2022/07/18 11:24:32;;;;;;;6.63;2.50;;;;;;;;;;7665426;23;20019;-58
2022/07/18 11:27:33;;;;;;;5.47;2.38;;;;;;;;;;7673695;23;20025;-57
2022/07/18 11:30:34;;;;;;;3.57;2.10;;;;;;;;;;7652581;23;20124;-49
2022/07/18 11:33:37;;;;;;;6.97;2.20;;;;;;;;;;7657582;23;20433;-55
2022/07/18 11:36:42;;;;;;;7.13;2.00;;;;;;;;;;7657250;23;20392;-57
2022/07/18 11:39:42;;;;;;;7.55;2.45;;;;;;;;;;7657329;23;20028;-52
2022/07/18 11:42:43;;;;;;;5.17;2.20;;;;;;;;;;7659048;23;20741;-55
2022/07/18 11:45:44;;;;;;;6.03;2.60;;;;;;;;;;7660119;23;20400;-50
2022/07/18 11:48:47;;;;;;;5.57;1.90;;;;;;;;;;7659790;23;20754;-53
2022/07/18 11:51:48;;;;;;;4.47;2.10;;;;;;;;;;7662059;23;20743;-49
2022/07/18 11:54:49;;;;;;;5.97;2.17;;;;;;;;;;7661027;23;20132;-49
2022/07/18 11:57:50;;;;;;;5.63;2.20;;;;;;;;;;7657890;23;20025;-51
2022/07/18 12:00:50;;;;;;;7.20;2.37;;;;;;;;;;7661753;23;20016;-50
2022/07/18 12:03:51;;;;;;;4.43;2.10;;;;;;;;;;7662008;23;20120;-52
2022/07/18 12:07:21;;;;;;;4.85;1.85;;;;;;;;;;7662133;23;20473;-53
2022/07/18 12:10:22;;;;;;;5.68;2.10;;;;;;;;;;7659243;23;20032;-52
2022/07/18 12:13:22;;;;;;;5.97;2.20;;;;;;;;;;7662781;23;20021;-48
2022/07/18 12:16:38;;;;;;;6.97;2.13;;;;;;;;;;7668343;23;20436;-49
2022/07/18 12:19:39;;;;;;;4.13;1.90;;;;;;;;;;7656925;23;20654;-50
2022/07/18 12:22:59;;;;;;;;;;;;;;;;;;7662933;23;20052;-52
2022/07/18 12:26:01;;;;;;;4.45;1.90;;;;;;;;;;7661945;23;20324;-49
2022/07/18 12:29:06;;;;;;;4.85;2.20;;;;;;;;;;7657738;23;20017;-57
2022/07/18 12:32:15;;;;;;;6.07;2.08;;;;;;;;;;7660099;23;20037;-52
2022/07/18 12:35:34;;;;;;;5.10;2.00;;;;;;;;;;7660634;23;20071;-55
2022/07/18 12:38:35;;;;;;;5.13;2.00;;;;;;;;;;7660159;23;20357;-52
2022/07/18 12:41:36;;;;;;;5.93;2.10;;;;;;;;;;7660176;23;20031;-49
2022/07/18 12:44:37;;;;;;;6.07;2.10;;;;;;;;;;7674055;23;20021;-49
2022/07/18 12:47:37;;;;;;;5.57;2.20;;;;;;;;;;7662199;23;20024;-49
2022/07/18 12:50:40;;;;;;;5.63;2.30;;;;;;;;;;7652599;23;20104;-54
2022/07/18 12:53:42;;;;;;;5.32;2.10;;;;;;;;;;7655842;23;20071;-49
2022/07/18 12:56:43;;;;;;;5.15;2.30;;;;;;;;;;7654775;23;20052;-52
2022/07/18 12:59:44;;;;;;;6.80;2.13;;;;;;;;;;7654083;23;20067;-57
2022/07/18 13:02:47;;;;;;;4.47;2.30;;;;;;;;;;7654172;23;20025;-54
2022/07/18 13:05:48;;;;;;;6.47;2.20;;;;;;;;;;7654751;23;20047;-56
2022/07/18 13:08:49;;;;;;;5.93;3.00;;;;;;;;;;7652657;23;20095;-55
2022/07/18 13:11:49;;;;;;;8.03;2.30;;;;;;;;;;7656749;23;20025;-55
2022/07/18 13:14:50;;;;;;;6.33;2.23;;;;;;;;;;7653778;23;20777;-53
2022/07/18 13:17:50;;;;;;;7.53;2.20;;;;;;;;;;7651552;23;20021;-56
2022/07/18 13:20:51;;;;;;;5.77;1.93;;;;;;;;;;7653185;23;20476;-54
2022/07/18 13:23:51;;;;;;;5.13;2.10;;;;;;;;;;7651845;23;20021;-53
2022/07/18 13:26:52;;;;;;;5.13;2.50;;;;;;;;;;7654935;23;20068;-57
2022/07/18 13:29:53;;;;;;;4.25;2.10;;;;;;;;;;7654101;23;20017;-58
2022/07/18 13:32:54;;;;;;;4.23;2.13;;;;;;;;;;7658524;23;20017;-53
2022/07/18 13:35:55;;;;;;;6.95;2.22;;;;;;;;;;7664054;23;20110;-57
2022/07/18 13:38:56;;;;;;;4.60;2.00;;;;;;;;;;7660250;23;20523;-57
2022/07/18 13:41:56;;;;;;;5.67;2.20;;;;;;;;;;7660963;23;20063;-59
2022/07/18 13:44:58;;;;;;;4.37;2.20;;;;;;;;;;7661524;23;20025;-55
2022/07/18 13:47:59;;;;;;;5.38;1.73;;;;;;;;;;7660321;23;20029;-55
2022/07/18 13:51:00;;;;;;;6.70;2.03;;;;;;;;;;7660815;23;20021;-55
2022/07/18 13:54:01;;;;;;;3.88;1.95;;;;;;;;;;7661009;23;20017;-54
2022/07/18 13:57:01;;;;;;;5.07;2.13;;;;;;;;;;7668446;23;20353;-49
2022/07/18 14:00:03;;;;;;;4.27;2.00;;;;;;;;;;7654169;23;20024;-54
2022/07/18 14:03:05;;;;;;;6.57;1.88;;;;;;;;;;7658504;23;20471;-50
2022/07/18 14:06:06;;;;;;;6.47;2.05;;;;;;;;;;7656472;23;20365;-52
2022/07/18 14:09:06;;;;;;;5.33;2.10;;;;;;;;;;7653279;23;20028;-54
2022/07/18 14:12:07;;;;;;;5.60;2.13;;;;;;;;;;7653498;23;20027;-48
2022/07/18 14:15:08;;;;;;;5.83;1.97;;;;;;;;;;7654330;23;20049;-49
2022/07/18 14:18:10;;;;;;;5.57;2.30;;;;;;;;;;7653164;23;20068;-52
2022/07/18 14:21:10;;;;;;;4.97;2.03;;;;;;;;;;7666638;23;20409;-57
2022/07/18 14:24:11;;;;;;;5.20;2.03;;;;;;;;;;7656243;23;20024;-49
2022/07/18 14:27:11;;;;;;;5.70;2.10;;;;;;;;;;7656338;23;20021;-51
2022/07/18 14:30:14;;;;;;;6.23;2.43;;;;;;;;;;7656728;23;20353;-52
2022/07/18 14:33:15;;;;;;;5.38;2.75;;;;;;;;;;7655798;23;20067;-57
2022/07/18 14:36:15;;;;;;;4.60;2.23;;;;;;;;;;7656440;23;20365;-54
2022/07/18 14:39:16;;;;;;;8.50;2.13;;;;;;;;;;7666750;23;20025;-48
2022/07/18 14:42:16;;;;;;;5.83;2.10;;;;;;;;;;7656835;23;20021;-48
2022/07/18 14:45:19;;;;;;;4.93;2.13;;;;;;;;;;7658971;23;20267;-51
2022/07/18 14:48:20;;;;;;;4.50;2.10;;;;;;;;;;7657609;23;20250;-50
2022/07/18 14:51:21;;;;;;;6.73;2.13;;;;;;;;;;7656475;23;20115;-52
2022/07/18 14:54:21;;;;;;;4.00;1.93;;;;;;;;;;7656748;23;20355;-49
2022/07/18 14:57:22;;;;;;;4.28;1.90;;;;;;;;;;7657464;23;20482;-54
2022/07/18 15:00:23;;;;;;;6.73;2.20;;;;;;;;;;7655701;23;20017;-50
2022/07/18 15:03:23;;;;;;;5.27;2.20;;;;;;;;;;7656810;23;20124;-55
2022/07/18 15:06:24;;;;;;;3.90;1.87;;;;;;;;;;7657655;23;20025;-52
2022/07/18 15:09:25;;;;;;;4.97;1.98;;;;;;;;;;7657940;23;20103;-54
2022/07/18 15:12:28;;;;;;;4.13;2.00;;;;;;;;;;7663476;23;20071;-50
2022/07/18 15:15:28;;;;;;;5.65;2.45;;;;;;;;;;7662108;23;20087;-56
2022/07/18 15:18:29;;;;;;;5.67;2.83;;;;;;;;;;7661187;23;20448;-54
2022/07/18 15:21:30;;;;;;;6.23;2.33;;;;;;;;;;7660850;23;20028;-56
2022/07/18 15:24:31;;;;;;;4.70;2.00;;;;;;;;;;7662369;23;20116;-57
2022/07/18 15:27:32;;;;;;;5.57;2.10;;;;;;;;;;7660852;23;20112;-57
2022/07/18 15:30:33;;;;;;;5.17;2.17;;;;;;;;;;7655749;23;20376;-52
2022/07/18 15:33:33;;;;;;;4.47;2.20;;;;;;;;;;7656410;23;20025;-57
2022/07/18 15:36:34;;;;;;;5.13;2.20;;;;;;;;;;7653931;23;20342;-56
2022/07/18 15:39:35;;;;;;;5.63;2.08;;;;;;;;;;7656832;23;20028;-54
2022/07/18 15:42:35;;;;;;;5.23;2.20;;;;;;;;;;7661526;23;20017;-50
2022/07/18 15:45:36;;;;;;;5.25;3.00;;;;;;;;;;7658177;23;20036;-56
2022/07/18 15:48:37;;;;;;;7.13;2.63;;;;;;;;;;7659533;23;20017;-52
2022/07/18 15:51:37;;;;;;;7.70;2.55;;;;;;;;;;7660674;23;20175;-49
2022/07/18 15:54:38;;;;;;;6.33;2.17;;;;;;;;;;7661626;23;20044;-48
2022/07/18 15:57:38;;;;;;;4.97;2.10;;;;;;;;;;7660633;23;20575;-53
2022/07/18 16:00:39;;;;;;;6.53;2.77;;;;;;;;;;7672124;23;20717;-54
2022/07/18 16:03:40;;;;;;;5.13;2.22;;;;;;;;;;7660434;23;20020;-53
2022/07/18 16:06:40;;;;;;;4.33;2.10;;;;;;;;;;7660440;23;20524;-49
2022/07/18 16:09:41;;;;;;;5.20;1.93;;;;;;;;;;7659281;23;20104;-49
2022/07/18 16:12:41;;;;;;;5.90;2.50;;;;;;;;;;7659161;23;20469;-52
2022/07/18 16:15:45;;;;;;;7.03;3.38;;;;;;;;;;7659075;23;20100;-58
2022/07/18 16:18:46;;;;;;;5.38;2.30;;;;;;;;;;7656421;23;20013;-57
2022/07/18 16:21:48;;;;;;;6.63;2.30;;;;;;;;;;7660214;23;20475;-49
2022/07/18 16:24:48;;;;;;;6.13;3.85;;;;;;;;;;7634827;23;20465;-52
2022/07/18 16:27:49;;;;;;;5.43;2.67;;;;;;;;;;7659352;23;20108;-49
2022/07/18 16:30:49;;;;;;;6.17;2.23;;;;;;;;;;7660248;23;20396;-53
2022/07/18 16:33:50;;;;;;;6.18;3.33;;;;;;;;;;7659173;23;20040;-57
2022/07/18 16:36:51;;;;;;;6.53;2.20;;;;;;;;;;7660355;23;20025;-57
2022/07/18 16:39:52;;;;;;;4.95;2.30;;;;;;;;;;7658240;23;20021;-58
2022/07/18 16:42:53;;;;;;;5.38;2.60;;;;;;;;;;7660237;23;20791;-52
2022/07/18 16:45:54;;;;;;;6.07;3.53;;;;;;;;;;7660079;23;20026;-54
2022/07/18 16:48:55;;;;;;;5.10;1.95;;;;;;;;;;7658626;23;20017;-54
2022/07/18 16:51:57;;;;;;;4.55;2.30;;;;;;;;;;7658735;23;20722;-58
2022/07/18 16:54:58;;;;;;;4.75;2.28;;;;;;;;;;7659754;23;20822;-56
2022/07/18 16:57:59;;;;;;;4.43;2.45;;;;;;;;;;7658907;23;20817;-56
2022/07/18 17:01:01;;;;;;;7.47;2.33;;;;;;;;;;7660544;23;20021;-54
2022/07/18 17:04:02;;;;;;;5.35;2.40;;;;;;;;;;7636384;23;20021;-54
2022/07/18 17:07:03;;;;;;;7.10;2.97;;;;;;;;;;7642882;23;20047;-55
2022/07/18 17:10:05;;;;;;;4.82;2.15;;;;;;;;;;7662088;23;20044;-51
2022/07/18 17:13:06;;;;;;;;;;;;;;;;;;7637370;23;20017;-51
2022/07/18 17:16:08;;;;;;;6.40;2.42;;;;;;;;;;7662449;23;19916;-54
2022/07/18 17:19:09;;;;;;;5.32;3.10;;;;;;;;;;7660157;23;20032;-48
2022/07/18 17:22:11;;;;;;;5.38;2.47;;;;;;;;;;7660679;23;20021;-57
2022/07/18 17:25:14;;;;;;;5.93;3.00;;;;;;;;;;7637024;23;20056;-57
2022/07/18 17:28:16;;;;;;;6.85;4.20;;;;;;;;;;7663138;23;20048;-57
2022/07/18 17:31:17;;;;;;;4.55;2.58;;;;;;;;;;7662394;23;20017;-50
2022/07/18 17:34:17;;;;;;;;;;;;;;;;;;7664482;23;20087;-57
2022/07/18 17:37:19;;;;;;;7.10;4.53;;;;;;;;;;7662913;23;20371;-56
2022/07/18 17:40:20;;;;;;;6.97;3.50;;;;;;;;;;7673576;23;20025;-58
2022/07/18 17:43:22;;;;;;;;;;;;;;;;;;7663462;23;20024;-54
2022/07/18 17:46:28;;;;;;;4.72;3.00;;;;;;;;;;7663457;23;19930;-58
2022/07/18 17:49:29;;;;;;;11.27;5.88;;;;;;;;;;7636322;23;20056;-59
2022/07/18 17:52:30;;;;;;;5.25;2.65;;;;;;;;;;7660582;23;20119;-58
2022/07/18 17:55:31;;;;;;;8.63;4.00;;;;;;;;;;7661852;23;20528;-51
2022/07/18 17:58:32;;;;;;;5.47;2.40;;;;;;;;;;7651474;23;20868;-54
2022/07/18 18:01:33;;;;;;;5.50;2.30;;;;;;;;;;7659165;23;20021;-51
2022/07/18 18:04:34;;;;;;;7.50;3.15;;;;;;;;;;7659268;23;20819;-58
2022/07/18 18:07:35;;;;;;;5.30;2.88;;;;;;;;;;7661694;23;20045;-56
2022/07/18 18:10:36;;;;;;;5.13;3.65;;;;;;;;;;7659191;23;20044;-52
2022/07/18 18:13:36;;;;;;;11.67;9.23;;;;;;;;;;7662187;23;20043;-58